sensor_id;sensor_type;location;lat;lon;timestamp;P1;durP1;ratioP1;P2;durP2;ratioP2
10333;SDS011;5212;47.892;16.406;2023-02-28T04:58:35;14.70;;;9.77;;
10333;SDS011;5212;47.892;16.406;2023-02-28T05:01:04;17.07;;;10.50;;
10333;SDS011;5212;47.892;16.406;2023-02-28T05:09:02;17.83;;;11.47;;
10333;SDS011;5212;47.892;16.406;2023-02-28T05:14:05;35.67;;;21.60;;
10333;SDS011;5212;47.892;16.406;2023-02-28T05:16:32;41.60;;;23.30;;
10333;SDS011;5212;47.892;16.406;2023-02-28T05:24:10;31.77;;;16.33;;
10333;SDS011;5212;47.892;16.406;2023-02-28T05:29:23;21.33;;;12.37;;
10333;SDS011;5212;47.892;16.406;2023-02-28T05:31:50;22.13;;;12.30;;
10333;SDS011;5212;47.892;16.406;2023-02-28T05:34:16;15.87;;;10.63;;
10333;SDS011;5212;47.892;16.406;2023-02-28T05:36:43;18.37;;;10.83;;
10333;SDS011;5212;47.892;16.406;2023-02-28T05:39:09;15.93;;;10.23;;
10333;SDS011;5212;47.892;16.406;2023-02-28T05:41:38;15.90;;;10.57;;
10333;SDS011;5212;47.892;16.406;2023-02-28T05:44:06;16.70;;;10.87;;
10333;SDS011;5212;47.892;16.406;2023-02-28T05:46:33;17.57;;;11.13;;
10333;SDS011;5212;47.892;16.406;2023-02-28T05:49:00;17.70;;;12.03;;
10333;SDS011;5212;47.892;16.406;2023-02-28T05:51:26;20.07;;;10.77;;
10333;SDS011;5212;47.892;16.406;2023-02-28T05:53:53;14.37;;;9.77;;
10333;SDS011;5212;47.892;16.406;2023-02-28T05:56:19;14.43;;;9.17;;
10333;SDS011;5212;47.892;16.406;2023-02-28T05:58:48;20.30;;;11.60;;
10333;SDS011;5212;47.892;16.406;2023-02-28T06:01:19;16.90;;;10.67;;
10333;SDS011;5212;47.892;16.406;2023-02-28T06:03:48;15.10;;;9.97;;
10333;SDS011;5212;47.892;16.406;2023-02-28T06:06:14;15.07;;;10.10;;
10333;SDS011;5212;47.892;16.406;2023-02-28T06:08:41;14.67;;;9.47;;
10333;SDS011;5212;47.892;16.406;2023-02-28T06:11:09;14.20;;;8.90;;
10333;SDS011;5212;47.892;16.406;2023-02-28T06:13:36;13.37;;;9.37;;
10333;SDS011;5212;47.892;16.406;2023-02-28T06:16:03;21.63;;;12.63;;
10333;SDS011;5212;47.892;16.406;2023-02-28T06:18:30;16.03;;;10.13;;
10333;SDS011;5212;47.892;16.406;2023-02-28T06:20:58;14.07;;;9.40;;
10333;SDS011;5212;47.892;16.406;2023-02-28T06:23:24;14.03;;;9.60;;
10333;SDS011;5212;47.892;16.406;2023-02-28T06:25:50;15.13;;;11.27;;
10333;SDS011;5212;47.892;16.406;2023-02-28T06:28:18;20.37;;;14.07;;
10333;SDS011;5212;47.892;16.406;2023-02-28T06:30:44;22.33;;;13.60;;
10333;SDS011;5212;47.892;16.406;2023-02-28T06:33:10;19.07;;;12.57;;
10333;SDS011;5212;47.892;16.406;2023-02-28T06:35:36;17.13;;;12.00;;
10333;SDS011;5212;47.892;16.406;2023-02-28T06:38:04;20.07;;;13.67;;
10333;SDS011;5212;47.892;16.406;2023-02-28T06:40:31;21.57;;;14.67;;
10333;SDS011;5212;47.892;16.406;2023-02-28T06:43:00;20.07;;;13.80;;
10333;SDS011;5212;47.892;16.406;2023-02-28T06:45:26;21.50;;;13.63;;
10333;SDS011;5212;47.892;16.406;2023-02-28T06:47:53;26.10;;;16.87;;
10333;SDS011;5212;47.892;16.406;2023-02-28T06:50:19;26.53;;;16.87;;
10333;SDS011;5212;47.892;16.406;2023-02-28T06:52:46;20.70;;;13.67;;
10333;SDS011;5212;47.892;16.406;2023-02-28T06:55:13;23.13;;;13.17;;
10333;SDS011;5212;47.892;16.406;2023-02-28T06:57:39;17.20;;;11.67;;
10333;SDS011;5212;47.892;16.406;2023-02-28T07:00:07;18.87;;;11.70;;
10333;SDS011;5212;47.892;16.406;2023-02-28T07:02:34;15.93;;;10.53;;
10333;SDS011;5212;47.892;16.406;2023-02-28T07:05:00;17.07;;;11.27;;
10333;SDS011;5212;47.892;16.406;2023-02-28T07:07:27;19.70;;;12.40;;
10333;SDS011;5212;47.892;16.406;2023-02-28T07:09:53;18.97;;;12.30;;
10333;SDS011;5212;47.892;16.406;2023-02-28T07:12:20;17.97;;;12.00;;
10333;SDS011;5212;47.892;16.406;2023-02-28T07:14:48;22.37;;;13.80;;
10333;SDS011;5212;47.892;16.406;2023-02-28T07:17:14;23.37;;;13.60;;
10333;SDS011;5212;47.892;16.406;2023-02-28T07:19:40;19.17;;;12.80;;
10333;SDS011;5212;47.892;16.406;2023-02-28T07:22:06;23.00;;;14.50;;
10333;SDS011;5212;47.892;16.406;2023-02-28T07:24:33;23.53;;;14.17;;
10333;SDS011;5212;47.892;16.406;2023-02-28T07:27:00;23.30;;;13.80;;
10333;SDS011;5212;47.892;16.406;2023-02-28T07:29:29;24.33;;;15.17;;
10333;SDS011;5212;47.892;16.406;2023-02-28T07:31:56;22.80;;;14.53;;
10333;SDS011;5212;47.892;16.406;2023-02-28T07:37:14;23.90;;;14.43;;
10333;SDS011;5212;47.892;16.406;2023-02-28T07:39:41;21.17;;;13.33;;
10333;SDS011;5212;47.892;16.406;2023-02-28T07:42:07;22.20;;;13.93;;
10333;SDS011;5212;47.892;16.406;2023-02-28T07:44:37;22.30;;;14.43;;
10333;SDS011;5212;47.892;16.406;2023-02-28T07:47:05;17.50;;;12.40;;
10333;SDS011;5212;47.892;16.406;2023-02-28T11:13:46;19.20;;;13.50;;
10333;SDS011;5212;47.892;16.406;2023-02-28T11:26:53;16.87;;;12.87;;
10333;SDS011;5212;47.892;16.406;2023-02-28T12:01:05;15.70;;;12.07;;
10333;SDS011;5212;47.892;16.406;2023-02-28T12:55:48;14.43;;;10.10;;
10333;SDS011;5212;47.892;16.406;2023-02-28T13:06:05;15.07;;;10.43;;
10333;SDS011;5212;47.892;16.406;2023-02-28T13:08:52;14.07;;;10.47;;
10333;SDS011;5212;47.892;16.406;2023-02-28T13:11:28;13.17;;;10.23;;
10333;SDS011;5212;47.892;16.406;2023-02-28T13:37:47;14.33;;;10.00;;
10333;SDS011;5212;47.892;16.406;2023-02-28T13:45:07;14.80;;;10.47;;
10333;SDS011;5212;47.892;16.406;2023-02-28T13:47:28;15.73;;;9.27;;
10333;SDS011;5212;47.892;16.406;2023-02-28T13:50:52;12.40;;;9.67;;
10333;SDS011;5212;47.892;16.406;2023-02-28T14:01:14;12.87;;;10.00;;
10333;SDS011;5212;47.892;16.406;2023-02-28T14:06:53;12.93;;;10.07;;
10333;SDS011;5212;47.892;16.406;2023-02-28T14:09:21;13.57;;;9.90;;
10333;SDS011;5212;47.892;16.406;2023-02-28T14:11:51;13.40;;;10.80;;
10333;SDS011;5212;47.892;16.406;2023-02-28T14:17:17;14.40;;;11.20;;
10333;SDS011;5212;47.892;16.406;2023-02-28T14:19:44;16.17;;;10.83;;
10333;SDS011;5212;47.892;16.406;2023-02-28T14:22:13;12.70;;;9.57;;
10333;SDS011;5212;47.892;16.406;2023-02-28T14:25:03;14.30;;;8.93;;
10333;SDS011;5212;47.892;16.406;2023-02-28T14:27:38;14.07;;;10.77;;
10333;SDS011;5212;47.892;16.406;2023-02-28T14:33:11;13.77;;;10.17;;
10333;SDS011;5212;47.892;16.406;2023-02-28T14:35:50;13.07;;;9.90;;
10333;SDS011;5212;47.892;16.406;2023-02-28T14:38:25;14.40;;;10.43;;
10333;SDS011;5212;47.892;16.406;2023-02-28T14:40:55;12.60;;;8.83;;
10333;SDS011;5212;47.892;16.406;2023-02-28T14:43:24;12.87;;;9.07;;
10333;SDS011;5212;47.892;16.406;2023-02-28T14:45:52;11.43;;;8.47;;
10333;SDS011;5212;47.892;16.406;2023-02-28T14:48:22;11.73;;;8.00;;
10333;SDS011;5212;47.892;16.406;2023-02-28T14:50:51;9.47;;;7.77;;
10333;SDS011;5212;47.892;16.406;2023-02-28T14:53:19;13.03;;;9.77;;
10333;SDS011;5212;47.892;16.406;2023-02-28T14:55:47;13.10;;;10.07;;
10333;SDS011;5212;47.892;16.406;2023-02-28T14:58:22;12.27;;;8.83;;
10333;SDS011;5212;47.892;16.406;2023-02-28T15:00:51;12.57;;;9.40;;
10333;SDS011;5212;47.892;16.406;2023-02-28T15:03:18;11.37;;;8.53;;
10333;SDS011;5212;47.892;16.406;2023-02-28T15:05:52;11.57;;;8.87;;
10333;SDS011;5212;47.892;16.406;2023-02-28T15:08:20;11.00;;;8.67;;
10333;SDS011;5212;47.892;16.406;2023-02-28T15:10:50;11.13;;;8.20;;
10333;SDS011;5212;47.892;16.406;2023-02-28T15:13:19;12.80;;;8.77;;
10333;SDS011;5212;47.892;16.406;2023-02-28T15:15:49;11.37;;;8.27;;
10333;SDS011;5212;47.892;16.406;2023-02-28T15:18:24;14.10;;;9.07;;
10333;SDS011;5212;47.892;16.406;2023-02-28T15:20:55;11.27;;;7.97;;
10333;SDS011;5212;47.892;16.406;2023-02-28T15:23:22;12.23;;;8.97;;
10333;SDS011;5212;47.892;16.406;2023-02-28T15:25:49;11.90;;;8.10;;
10333;SDS011;5212;47.892;16.406;2023-02-28T15:28:18;12.20;;;8.53;;
10333;SDS011;5212;47.892;16.406;2023-02-28T15:30:53;11.17;;;8.73;;
10333;SDS011;5212;47.892;16.406;2023-02-28T15:33:23;12.03;;;9.30;;
10333;SDS011;5212;47.892;16.406;2023-02-28T15:35:51;20.13;;;15.13;;
10333;SDS011;5212;47.892;16.406;2023-02-28T15:38:29;14.93;;;11.57;;
10333;SDS011;5212;47.892;16.406;2023-02-28T15:41:01;19.43;;;15.20;;
10333;SDS011;5212;47.892;16.406;2023-02-28T15:43:33;15.87;;;11.27;;
10333;SDS011;5212;47.892;16.406;2023-02-28T15:46:01;13.70;;;9.63;;
10333;SDS011;5212;47.892;16.406;2023-02-28T15:48:29;11.10;;;7.87;;
10333;SDS011;5212;47.892;16.406;2023-02-28T15:50:57;9.17;;;6.77;;
10333;SDS011;5212;47.892;16.406;2023-02-28T15:53:28;10.00;;;7.23;;
10333;SDS011;5212;47.892;16.406;2023-02-28T15:55:59;10.40;;;7.40;;
10333;SDS011;5212;47.892;16.406;2023-02-28T15:58:27;13.27;;;9.87;;
10333;SDS011;5212;47.892;16.406;2023-02-28T16:01:03;11.10;;;9.00;;
10333;SDS011;5212;47.892;16.406;2023-02-28T16:03:39;10.83;;;8.43;;
10333;SDS011;5212;47.892;16.406;2023-02-28T16:06:32;12.37;;;8.67;;
10333;SDS011;5212;47.892;16.406;2023-02-28T16:09:06;15.47;;;10.30;;
10333;SDS011;5212;47.892;16.406;2023-02-28T16:14:08;14.90;;;10.90;;
10333;SDS011;5212;47.892;16.406;2023-02-28T16:22:17;16.20;;;12.10;;
10333;SDS011;5212;47.892;16.406;2023-02-28T16:24:43;26.13;;;18.53;;
10333;SDS011;5212;47.892;16.406;2023-02-28T16:27:14;16.80;;;13.20;;
10333;SDS011;5212;47.892;16.406;2023-02-28T16:29:42;15.17;;;11.17;;
10333;SDS011;5212;47.892;16.406;2023-02-28T16:32:10;15.60;;;11.60;;
10333;SDS011;5212;47.892;16.406;2023-02-28T16:34:39;16.53;;;12.17;;
10333;SDS011;5212;47.892;16.406;2023-02-28T16:55:14;10.63;;;7.87;;
10333;SDS011;5212;47.892;16.406;2023-02-28T16:57:40;9.97;;;7.80;;
10333;SDS011;5212;47.892;16.406;2023-02-28T17:00:08;13.33;;;9.60;;
10333;SDS011;5212;47.892;16.406;2023-02-28T17:02:37;9.83;;;7.60;;
10333;SDS011;5212;47.892;16.406;2023-02-28T17:05:04;13.50;;;9.23;;
10333;SDS011;5212;47.892;16.406;2023-02-28T17:07:31;13.03;;;8.17;;
10333;SDS011;5212;47.892;16.406;2023-02-28T17:09:57;13.03;;;8.97;;
10333;SDS011;5212;47.892;16.406;2023-02-28T17:12:26;17.37;;;11.53;;
10333;SDS011;5212;47.892;16.406;2023-02-28T17:14:53;44.93;;;26.47;;
10333;SDS011;5212;47.892;16.406;2023-02-28T17:17:20;44.20;;;25.47;;
10333;SDS011;5212;47.892;16.406;2023-02-28T17:19:47;41.57;;;24.47;;
10333;SDS011;5212;47.892;16.406;2023-02-28T17:22:14;38.33;;;23.10;;
10333;SDS011;5212;47.892;16.406;2023-02-28T17:24:41;30.23;;;20.43;;
10333;SDS011;5212;47.892;16.406;2023-02-28T17:27:09;25.50;;;17.90;;
10333;SDS011;5212;47.892;16.406;2023-02-28T17:29:54;22.17;;;16.00;;
10333;SDS011;5212;47.892;16.406;2023-02-28T17:35:07;15.57;;;10.73;;
10333;SDS011;5212;47.892;16.406;2023-02-28T17:37:34;14.07;;;10.90;;
10333;SDS011;5212;47.892;16.406;2023-02-28T17:40:01;16.27;;;10.90;;
10333;SDS011;5212;47.892;16.406;2023-02-28T17:42:28;15.97;;;11.40;;
10333;SDS011;5212;47.892;16.406;2023-02-28T17:44:55;15.93;;;11.83;;
10333;SDS011;5212;47.892;16.406;2023-02-28T17:47:22;16.10;;;11.47;;
10333;SDS011;5212;47.892;16.406;2023-02-28T17:49:48;16.20;;;12.03;;
10333;SDS011;5212;47.892;16.406;2023-02-28T17:52:15;20.00;;;14.53;;
10333;SDS011;5212;47.892;16.406;2023-02-28T17:54:41;17.17;;;13.47;;
10333;SDS011;5212;47.892;16.406;2023-02-28T17:57:10;17.90;;;13.23;;
10333;SDS011;5212;47.892;16.406;2023-02-28T17:59:38;18.20;;;13.60;;
10333;SDS011;5212;47.892;16.406;2023-02-28T18:02:07;19.23;;;13.47;;
10333;SDS011;5212;47.892;16.406;2023-02-28T18:04:34;14.80;;;10.67;;
10333;SDS011;5212;47.892;16.406;2023-02-28T18:07:09;14.83;;;10.67;;
10333;SDS011;5212;47.892;16.406;2023-02-28T18:10:15;14.80;;;10.83;;
10333;SDS011;5212;47.892;16.406;2023-02-28T18:13:21;14.50;;;10.63;;
10333;SDS011;5212;47.892;16.406;2023-02-28T18:16:30;16.17;;;11.07;;
10333;SDS011;5212;47.892;16.406;2023-02-28T18:22:51;12.07;;;9.27;;
10333;SDS011;5212;47.892;16.406;2023-02-28T18:25:18;12.03;;;9.00;;
10333;SDS011;5212;47.892;16.406;2023-02-28T18:27:44;16.23;;;11.90;;
10333;SDS011;5212;47.892;16.406;2023-02-28T18:30:22;23.87;;;17.37;;
10333;SDS011;5212;47.892;16.406;2023-02-28T18:32:49;26.73;;;18.93;;
10333;SDS011;5212;47.892;16.406;2023-02-28T18:35:15;39.97;;;26.37;;
10333;SDS011;5212;47.892;16.406;2023-02-28T18:38:11;42.50;;;27.50;;
10333;SDS011;5212;47.892;16.406;2023-02-28T18:40:39;30.20;;;20.10;;
10333;SDS011;5212;47.892;16.406;2023-02-28T18:43:06;29.00;;;17.73;;
10333;SDS011;5212;47.892;16.406;2023-02-28T18:45:35;22.03;;;15.30;;
10333;SDS011;5212;47.892;16.406;2023-02-28T18:48:02;22.67;;;15.03;;
10333;SDS011;5212;47.892;16.406;2023-02-28T18:50:29;21.00;;;15.27;;
10333;SDS011;5212;47.892;16.406;2023-02-28T18:52:56;20.73;;;14.33;;
10333;SDS011;5212;47.892;16.406;2023-02-28T18:55:24;18.20;;;13.00;;
10333;SDS011;5212;47.892;16.406;2023-02-28T18:57:52;16.60;;;11.17;;
10333;SDS011;5212;47.892;16.406;2023-02-28T19:00:18;15.83;;;10.73;;
10333;SDS011;5212;47.892;16.406;2023-02-28T19:02:49;14.47;;;10.43;;
10333;SDS011;5212;47.892;16.406;2023-02-28T19:05:15;13.43;;;9.50;;
10333;SDS011;5212;47.892;16.406;2023-02-28T19:07:42;16.57;;;11.67;;
10333;SDS011;5212;47.892;16.406;2023-02-28T19:10:09;18.87;;;12.43;;
10333;SDS011;5212;47.892;16.406;2023-02-28T19:12:37;15.27;;;10.93;;
10333;SDS011;5212;47.892;16.406;2023-02-28T19:15:06;16.17;;;10.00;;
10333;SDS011;5212;47.892;16.406;2023-02-28T19:17:34;13.43;;;9.17;;
10333;SDS011;5212;47.892;16.406;2023-02-28T19:20:01;15.27;;;10.67;;
10333;SDS011;5212;47.892;16.406;2023-02-28T19:22:28;15.50;;;9.97;;
10333;SDS011;5212;47.892;16.406;2023-02-28T19:24:56;16.50;;;11.53;;
10333;SDS011;5212;47.892;16.406;2023-02-28T19:27:22;17.60;;;11.70;;
10333;SDS011;5212;47.892;16.406;2023-02-28T19:29:50;17.60;;;11.70;;
10333;SDS011;5212;47.892;16.406;2023-02-28T19:32:18;17.10;;;11.23;;
10333;SDS011;5212;47.892;16.406;2023-02-28T19:34:45;13.37;;;9.50;;
10333;SDS011;5212;47.892;16.406;2023-02-28T19:37:11;15.93;;;10.63;;
10333;SDS011;5212;47.892;16.406;2023-02-28T19:39:38;16.93;;;12.03;;
10333;SDS011;5212;47.892;16.406;2023-02-28T19:42:07;17.83;;;12.43;;
10333;SDS011;5212;47.892;16.406;2023-02-28T19:44:34;16.20;;;11.30;;
